sensor_id;sensor_type;location;lat;lon;timestamp;pressure;altitude;pressure_sealevel;temperature;humidity
58975;BME280;44751;52.236;5.178;2024-01-07T00:00:20;101687.56;;;5.38;100.00
58975;BME280;44751;52.236;5.178;2024-01-07T00:02:46;101691.63;;;5.21;100.00
58975;BME280;44751;52.236;5.178;2024-01-07T00:05:13;101702.97;;;5.69;100.00
58975;BME280;44751;52.236;5.178;2024-01-07T00:07:39;101702.31;;;5.33;100.00
58975;BME280;44751;52.236;5.178;2024-01-07T00:10:06;101705.03;;;5.65;100.00
58975;BME280;44751;52.236;5.178;2024-01-07T00:12:34;101715.06;;;5.52;100.00
58975;BME280;44751;52.236;5.178;2024-01-07T00:15:00;101715.19;;;5.39;100.00
58975;BME280;44751;52.236;5.178;2024-01-07T00:17:27;101719.31;;;5.43;100.00
58975;BME280;44751;52.236;5.178;2024-01-07T00:19:53;101726.00;;;5.49;100.00
58975;BME280;44751;52.236;5.178;2024-01-07T00:22:20;101723.94;;;4.84;100.00
58975;BME280;44751;52.236;5.178;2024-01-07T00:24:46;101731.34;;;4.80;100.00
58975;BME280;44751;52.236;5.178;2024-01-07T00:27:12;101728.44;;;5.06;100.00
58975;BME280;44751;52.236;5.178;2024-01-07T00:29:39;101726.81;;;5.72;100.00
58975;BME280;44751;52.236;5.178;2024-01-07T00:32:05;101727.53;;;5.74;100.00
58975;BME280;44751;52.236;5.178;2024-01-07T00:34:34;101725.75;;;5.63;100.00
58975;BME280;44751;52.236;5.178;2024-01-07T00:37:00;101733.44;;;5.34;100.00
58975;BME280;44751;52.236;5.178;2024-01-07T00:39:27;101737.09;;;5.33;100.00
58975;BME280;44751;52.236;5.178;2024-01-07T00:41:53;101730.31;;;5.84;100.00
58975;BME280;44751;52.236;5.178;2024-01-07T00:44:20;101740.09;;;5.62;100.00
58975;BME280;44751;52.236;5.178;2024-01-07T00:46:46;101742.56;;;5.20;100.00
58975;BME280;44751;52.236;5.178;2024-01-07T00:49:13;101735.38;;;5.43;100.00
58975;BME280;44751;52.236;5.178;2024-01-07T00:51:39;101748.16;;;5.51;100.00
58975;BME280;44751;52.236;5.178;2024-01-07T00:54:05;101739.72;;;5.67;100.00
58975;BME280;44751;52.236;5.178;2024-01-07T00:56:32;101741.16;;;5.82;100.00
58975;BME280;44751;52.236;5.178;2024-01-07T00:58:58;101738.91;;;5.43;100.00
58975;BME280;44751;52.236;5.178;2024-01-07T01:01:30;101741.06;;;5.61;100.00
58975;BME280;44751;52.236;5.178;2024-01-07T01:03:56;101736.03;;;5.79;100.00
58975;BME280;44751;52.236;5.178;2024-01-07T01:06:23;101741.41;;;5.68;100.00
58975;BME280;44751;52.236;5.178;2024-01-07T01:08:49;101755.09;;;5.19;100.00
58975;BME280;44751;52.236;5.178;2024-01-07T01:11:16;101750.50;;;5.33;100.00
58975;BME280;44751;52.236;5.178;2024-01-07T01:13:42;101759.44;;;5.66;100.00
58975;BME280;44751;52.236;5.178;2024-01-07T01:16:11;101754.19;;;5.76;100.00
58975;BME280;44751;52.236;5.178;2024-01-07T01:18:37;101762.03;;;5.56;100.00
58975;BME280;44751;52.236;5.178;2024-01-07T01:21:04;101758.88;;;5.16;100.00
58975;BME280;44751;52.236;5.178;2024-01-07T01:23:30;101758.00;;;5.39;100.00
58975;BME280;44751;52.236;5.178;2024-01-07T01:25:57;101763.81;;;4.87;100.00
58975;BME280;44751;52.236;5.178;2024-01-07T01:28:23;101760.66;;;4.82;100.00
58975;BME280;44751;52.236;5.178;2024-01-07T01:30:50;101762.50;;;5.38;100.00
58975;BME280;44751;52.236;5.178;2024-01-07T01:33:16;101768.44;;;4.96;100.00
58975;BME280;44751;52.236;5.178;2024-01-07T01:35:42;101766.13;;;5.14;100.00
58975;BME280;44751;52.236;5.178;2024-01-07T01:38:09;101767.84;;;4.93;100.00
58975;BME280;44751;52.236;5.178;2024-01-07T01:40:36;101773.09;;;5.28;100.00
58975;BME280;44751;52.236;5.178;2024-01-07T01:43:03;101779.81;;;4.75;100.00
58975;BME280;44751;52.236;5.178;2024-01-07T01:45:29;101784.88;;;5.03;100.00
58975;BME280;44751;52.236;5.178;2024-01-07T01:47:56;101787.44;;;5.39;100.00
58975;BME280;44751;52.236;5.178;2024-01-07T01:50:22;101793.13;;;5.00;100.00
58975;BME280;44751;52.236;5.178;2024-01-07T01:52:49;101784.47;;;4.96;100.00
58975;BME280;44751;52.236;5.178;2024-01-07T01:55:16;101794.00;;;5.00;100.00
58975;BME280;44751;52.236;5.178;2024-01-07T01:57:43;101800.69;;;4.95;100.00
58975;BME280;44751;52.236;5.178;2024-01-07T02:00:11;101799.94;;;5.04;100.00
58975;BME280;44751;52.236;5.178;2024-01-07T02:02:38;101799.44;;;4.51;100.00
58975;BME280;44751;52.236;5.178;2024-01-07T02:05:05;101811.78;;;4.77;100.00
58975;BME280;44751;52.236;5.178;2024-01-07T02:07:31;101810.75;;;4.91;100.00
58975;BME280;44751;52.236;5.178;2024-01-07T02:09:58;101810.16;;;4.99;100.00
58975;BME280;44751;52.236;5.178;2024-01-07T02:12:25;101819.53;;;5.04;100.00
58975;BME280;44751;52.236;5.178;2024-01-07T02:14:51;101811.13;;;5.09;100.00
58975;BME280;44751;52.236;5.178;2024-01-07T02:17:19;101820.22;;;4.95;100.00
58975;BME280;44751;52.236;5.178;2024-01-07T02:19:46;101821.50;;;4.67;100.00
58975;BME280;44751;52.236;5.178;2024-01-07T02:22:12;101820.22;;;4.95;100.00
58975;BME280;44751;52.236;5.178;2024-01-07T02:24:38;101833.38;;;4.98;100.00
58975;BME280;44751;52.236;5.178;2024-01-07T02:27:08;101838.19;;;4.82;100.00
58975;BME280;44751;52.236;5.178;2024-01-07T02:29:34;101835.66;;;4.91;100.00
58975;BME280;44751;52.236;5.178;2024-01-07T02:32:00;101832.06;;;5.15;100.00
58975;BME280;44751;52.236;5.178;2024-01-07T02:34:27;101836.16;;;4.97;100.00
58975;BME280;44751;52.236;5.178;2024-01-07T02:36:53;101820.75;;;5.00;100.00
58975;BME280;44751;52.236;5.178;2024-01-07T02:39:20;101825.94;;;5.02;100.00
58975;BME280;44751;52.236;5.178;2024-01-07T02:41:46;101838.03;;;4.72;100.00
58975;BME280;44751;52.236;5.178;2024-01-07T02:44:13;101834.38;;;4.37;100.00
58975;BME280;44751;52.236;5.178;2024-01-07T02:46:40;101841.41;;;4.38;100.00
58975;BME280;44751;52.236;5.178;2024-01-07T02:49:06;101840.06;;;4.57;100.00
58975;BME280;44751;52.236;5.178;2024-01-07T02:51:32;101843.84;;;5.01;100.00
58975;BME280;44751;52.236;5.178;2024-01-07T02:53:59;101840.66;;;4.60;100.00
58975;BME280;44751;52.236;5.178;2024-01-07T02:56:25;101837.50;;;5.02;100.00
58975;BME280;44751;52.236;5.178;2024-01-07T02:58:52;101833.97;;;5.02;100.00
58975;BME280;44751;52.236;5.178;2024-01-07T03:01:21;101846.28;;;5.04;100.00
58975;BME280;44751;52.236;5.178;2024-01-07T03:03:48;101840.97;;;5.39;100.00
58975;BME280;44751;52.236;5.178;2024-01-07T03:06:15;101848.03;;;5.51;100.00
58975;BME280;44751;52.236;5.178;2024-01-07T03:08:42;101833.88;;;5.15;100.00
58975;BME280;44751;52.236;5.178;2024-01-07T03:11:09;101847.91;;;5.41;100.00
58975;BME280;44751;52.236;5.178;2024-01-07T03:13:35;101849.50;;;5.33;100.00
58975;BME280;44751;52.236;5.178;2024-01-07T03:16:02;101846.91;;;5.20;100.00
58975;BME280;44751;52.236;5.178;2024-01-07T03:18:30;101858.84;;;5.50;100.00
58975;BME280;44751;52.236;5.178;2024-01-07T03:20:57;101857.38;;;5.23;100.00
58975;BME280;44751;52.236;5.178;2024-01-07T03:23:23;101853.63;;;4.89;100.00
58975;BME280;44751;52.236;5.178;2024-01-07T03:25:50;101860.03;;;5.11;100.00
58975;BME280;44751;52.236;5.178;2024-01-07T03:28:16;101856.72;;;5.08;100.00
58975;BME280;44751;52.236;5.178;2024-01-07T03:30:43;101858.66;;;4.70;100.00
58975;BME280;44751;52.236;5.178;2024-01-07T03:33:09;101861.16;;;4.84;100.00
58975;BME280;44751;52.236;5.178;2024-01-07T03:35:36;101858.19;;;5.00;100.00
58975;BME280;44751;52.236;5.178;2024-01-07T03:38:02;101852.16;;;4.85;100.00
58975;BME280;44751;52.236;5.178;2024-01-07T03:40:28;101863.81;;;5.09;100.00
58975;BME280;44751;52.236;5.178;2024-01-07T03:42:55;101870.69;;;5.00;100.00
58975;BME280;44751;52.236;5.178;2024-01-07T03:45:21;101875.84;;;5.26;100.00
58975;BME280;44751;52.236;5.178;2024-01-07T03:47:47;101870.91;;;5.33;100.00
58975;BME280;44751;52.236;5.178;2024-01-07T03:50:14;101882.00;;;5.51;100.00
58975;BME280;44751;52.236;5.178;2024-01-07T03:52:40;101875.00;;;5.14;100.00
58975;BME280;44751;52.236;5.178;2024-01-07T03:55:07;101891.59;;;5.06;100.00
58975;BME280;44751;52.236;5.178;2024-01-07T03:57:33;101888.78;;;4.85;100.00
58975;BME280;44751;52.236;5.178;2024-01-07T04:00:00;101905.50;;;4.51;100.00
58975;BME280;44751;52.236;5.178;2024-01-07T04:02:26;101902.63;;;4.90;100.00
58975;BME280;44751;52.236;5.178;2024-01-07T04:04:54;101902.19;;;4.72;100.00
58975;BME280;44751;52.236;5.178;2024-01-07T04:07:20;101908.47;;;4.59;100.00
58975;BME280;44751;52.236;5.178;2024-01-07T04:09:46;101913.53;;;5.11;100.00
58975;BME280;44751;52.236;5.178;2024-01-07T04:12:13;101913.88;;;4.82;100.00
58975;BME280;44751;52.236;5.178;2024-01-07T04:14:39;101908.69;;;4.56;100.00
58975;BME280;44751;52.236;5.178;2024-01-07T04:17:06;101914.63;;;4.60;100.00
58975;BME280;44751;52.236;5.178;2024-01-07T04:19:33;101919.44;;;4.68;100.00
58975;BME280;44751;52.236;5.178;2024-01-07T04:21:59;101921.88;;;4.71;100.00
58975;BME280;44751;52.236;5.178;2024-01-07T04:24:26;101924.75;;;4.43;100.00
58975;BME280;44751;52.236;5.178;2024-01-07T04:26:52;101933.63;;;4.44;100.00
58975;BME280;44751;52.236;5.178;2024-01-07T04:29:19;101937.50;;;4.64;100.00
58975;BME280;44751;52.236;5.178;2024-01-07T04:31:45;101937.25;;;5.16;100.00
58975;BME280;44751;52.236;5.178;2024-01-07T04:34:11;101939.44;;;4.62;100.00
58975;BME280;44751;52.236;5.178;2024-01-07T04:36:39;101935.41;;;4.56;100.00
58975;BME280;44751;52.236;5.178;2024-01-07T04:39:06;101942.09;;;5.11;100.00
58975;BME280;44751;52.236;5.178;2024-01-07T04:41:33;101943.44;;;4.81;100.00
58975;BME280;44751;52.236;5.178;2024-01-07T04:43:59;101947.44;;;5.11;100.00
58975;BME280;44751;52.236;5.178;2024-01-07T04:46:25;101947.81;;;4.82;100.00
58975;BME280;44751;52.236;5.178;2024-01-07T04:48:52;101951.03;;;4.98;100.00
58975;BME280;44751;52.236;5.178;2024-01-07T04:51:18;101955.09;;;5.04;100.00
58975;BME280;44751;52.236;5.178;2024-01-07T04:53:44;101961.91;;;5.44;100.00
58975;BME280;44751;52.236;5.178;2024-01-07T04:56:11;101963.06;;;4.93;100.00
58975;BME280;44751;52.236;5.178;2024-01-07T04:58:37;101969.81;;;4.85;100.00
58975;BME280;44751;52.236;5.178;2024-01-07T05:01:04;101980.34;;;4.75;100.00
58975;BME280;44751;52.236;5.178;2024-01-07T05:03:29;101975.13;;;5.34;100.00
58975;BME280;44751;52.236;5.178;2024-01-07T05:05:59;101979.91;;;5.42;100.00
58975;BME280;44751;52.236;5.178;2024-01-07T05:08:26;101971.59;;;4.73;100.00
58975;BME280;44751;52.236;5.178;2024-01-07T05:10:53;101976.31;;;5.30;100.00
58975;BME280;44751;52.236;5.178;2024-01-07T05:13:19;101975.75;;;5.38;100.00
58975;BME280;44751;52.236;5.178;2024-01-07T05:15:47;101972.94;;;5.28;100.00
58975;BME280;44751;52.236;5.178;2024-01-07T05:18:21;101990.03;;;4.89;100.00
58975;BME280;44751;52.236;5.178;2024-01-07T05:20:48;101987.06;;;5.06;100.00
58975;BME280;44751;52.236;5.178;2024-01-07T05:23:14;101990.38;;;4.85;100.00
58975;BME280;44751;52.236;5.178;2024-01-07T05:25:44;101999.06;;;5.24;100.00
58975;BME280;44751;52.236;5.178;2024-01-07T05:28:12;101994.97;;;5.07;100.00
58975;BME280;44751;52.236;5.178;2024-01-07T05:30:39;102008.97;;;5.11;100.00
58975;BME280;44751;52.236;5.178;2024-01-07T05:33:06;102002.63;;;5.36;100.00
58975;BME280;44751;52.236;5.178;2024-01-07T05:35:32;102015.97;;;5.25;100.00
58975;BME280;44751;52.236;5.178;2024-01-07T05:37:59;102004.22;;;5.39;100.00
58975;BME280;44751;52.236;5.178;2024-01-07T05:40:25;102011.94;;;5.19;100.00
58975;BME280;44751;52.236;5.178;2024-01-07T05:42:54;102021.38;;;5.12;100.00
58975;BME280;44751;52.236;5.178;2024-01-07T05:45:20;102025.72;;;5.01;100.00
58975;BME280;44751;52.236;5.178;2024-01-07T05:47:46;102023.03;;;5.01;100.00
58975;BME280;44751;52.236;5.178;2024-01-07T05:50:13;102024.31;;;5.20;100.00
58975;BME280;44751;52.236;5.178;2024-01-07T05:52:42;102014.88;;;4.78;100.00
58975;BME280;44751;52.236;5.178;2024-01-07T05:55:09;102033.19;;;4.96;100.00
58975;BME280;44751;52.236;5.178;2024-01-07T05:57:36;102037.31;;;4.89;100.00
58975;BME280;44751;52.236;5.178;2024-01-07T06:00:02;102039.63;;;4.69;100.00
58975;BME280;44751;52.236;5.178;2024-01-07T06:02:29;102038.72;;;4.82;100.00
58975;BME280;44751;52.236;5.178;2024-01-07T06:04:55;102033.28;;;4.83;100.00
58975;BME280;44751;52.236;5.178;2024-01-07T06:07:22;102049.22;;;4.72;100.00
58975;BME280;44751;52.236;5.178;2024-01-07T06:09:48;102045.47;;;4.74;100.00
58975;BME280;44751;52.236;5.178;2024-01-07T06:12:14;102045.22;;;4.90;100.00
58975;BME280;44751;52.236;5.178;2024-01-07T06:14:41;102059.81;;;4.73;100.00
58975;BME280;44751;52.236;5.178;2024-01-07T06:17:07;102057.38;;;4.57;100.00
58975;BME280;44751;52.236;5.178;2024-01-07T06:19:34;102060.47;;;4.64;100.00
58975;BME280;44751;52.236;5.178;2024-01-07T06:22:02;102065.69;;;4.78;100.00
58975;BME280;44751;52.236;5.178;2024-01-07T06:24:29;102069.03;;;4.43;100.00
58975;BME280;44751;52.236;5.178;2024-01-07T06:26:55;102072.31;;;4.73;100.00
58975;BME280;44751;52.236;5.178;2024-01-07T06:29:21;102080.91;;;4.65;100.00
58975;BME280;44751;52.236;5.178;2024-01-07T06:31:48;102089.31;;;4.85;100.00
58975;BME280;44751;52.236;5.178;2024-01-07T06:34:14;102087.63;;;4.71;100.00
58975;BME280;44751;52.236;5.178;2024-01-07T06:36:41;102084.97;;;4.32;100.00
58975;BME280;44751;52.236;5.178;2024-01-07T06:39:10;102090.78;;;4.38;100.00
58975;BME280;44751;52.236;5.178;2024-01-07T06:41:37;102104.31;;;4.61;100.00
58975;BME280;44751;52.236;5.178;2024-01-07T06:44:03;102099.72;;;4.63;100.00
58975;BME280;44751;52.236;5.178;2024-01-07T06:46:30;102108.47;;;4.65;100.00
58975;BME280;44751;52.236;5.178;2024-01-07T06:48:56;102103.38;;;4.49;100.00
58975;BME280;44751;52.236;5.178;2024-01-07T06:51:23;102108.38;;;4.28;100.00
58975;BME280;44751;52.236;5.178;2024-01-07T06:53:50;102116.28;;;4.56;100.00
58975;BME280;44751;52.236;5.178;2024-01-07T06:56:16;102117.59;;;4.50;100.00
58975;BME280;44751;52.236;5.178;2024-01-07T06:58:43;102125.28;;;4.55;100.00
58975;BME280;44751;52.236;5.178;2024-01-07T07:01:13;102122.59;;;4.55;100.00
58975;BME280;44751;52.236;5.178;2024-01-07T07:03:42;102124.03;;;4.98;100.00
58975;BME280;44751;52.236;5.178;2024-01-07T07:06:08;102121.81;;;4.91;100.00
58975;BME280;44751;52.236;5.178;2024-01-07T07:08:36;102128.66;;;4.83;100.00
58975;BME280;44751;52.236;5.178;2024-01-07T07:11:03;102140.19;;;4.96;100.00
58975;BME280;44751;52.236;5.178;2024-01-07T07:13:29;102150.25;;;4.93;100.00
58975;BME280;44751;52.236;5.178;2024-01-07T07:15:56;102148.91;;;4.61;100.00
58975;BME280;44751;52.236;5.178;2024-01-07T07:18:24;102146.09;;;4.23;100.00
58975;BME280;44751;52.236;5.178;2024-01-07T07:20:51;102150.81;;;4.59;100.00
58975;BME280;44751;52.236;5.178;2024-01-07T07:23:18;102154.47;;;4.58;100.00
58975;BME280;44751;52.236;5.178;2024-01-07T07:25:44;102155.41;;;4.18;100.00
58975;BME280;44751;52.236;5.178;2024-01-07T07:28:11;102165.16;;;4.71;100.00
58975;BME280;44751;52.236;5.178;2024-01-07T07:30:37;102160.66;;;4.45;100.00
58975;BME280;44751;52.236;5.178;2024-01-07T07:33:04;102168.19;;;3.99;100.00
58975;BME280;44751;52.236;5.178;2024-01-07T07:35:30;102180.50;;;4.15;100.00
58975;BME280;44751;52.236;5.178;2024-01-07T07:37:57;102174.38;;;4.00;100.00
58975;BME280;44751;52.236;5.178;2024-01-07T07:40:23;102179.00;;;4.11;100.00
58975;BME280;44751;52.236;5.178;2024-01-07T07:42:49;102179.97;;;4.10;100.00
58975;BME280;44751;52.236;5.178;2024-01-07T07:45:16;102191.50;;;4.10;100.00
58975;BME280;44751;52.236;5.178;2024-01-07T07:47:44;102190.41;;;4.00;100.00
58975;BME280;44751;52.236;5.178;2024-01-07T07:50:11;102191.22;;;3.87;100.00
58975;BME280;44751;52.236;5.178;2024-01-07T07:52:37;102201.19;;;3.71;100.00
58975;BME280;44751;52.236;5.178;2024-01-07T07:55:04;102201.16;;;4.39;100.00
58975;BME280;44751;52.236;5.178;2024-01-07T07:57:41;102211.91;;;4.11;100.00
58975;BME280;44751;52.236;5.178;2024-01-07T08:00:08;102205.25;;;4.04;100.00
58975;BME280;44751;52.236;5.178;2024-01-07T08:02:38;102224.75;;;4.19;100.00
58975;BME280;44751;52.236;5.178;2024-01-07T08:05:05;102227.69;;;4.02;100.00
58975;BME280;44751;52.236;5.178;2024-01-07T08:07:32;102234.50;;;4.20;100.00
58975;BME280;44751;52.236;5.178;2024-01-07T08:09:59;102228.22;;;4.47;100.00
58975;BME280;44751;52.236;5.178;2024-01-07T08:12:25;102235.38;;;4.34;100.00
58975;BME280;44751;52.236;5.178;2024-01-07T08:14:52;102250.38;;;4.62;100.00
58975;BME280;44751;52.236;5.178;2024-01-07T08:17:18;102244.84;;;4.25;100.00
58975;BME280;44751;52.236;5.178;2024-01-07T08:19:45;102251.41;;;4.34;100.00
58975;BME280;44751;52.236;5.178;2024-01-07T08:22:12;102244.09;;;3.95;100.00
58975;BME280;44751;52.236;5.178;2024-01-07T08:24:39;102255.72;;;4.09;100.00
58975;BME280;44751;52.236;5.178;2024-01-07T08:27:06;102247.44;;;3.99;100.00
58975;BME280;44751;52.236;5.178;2024-01-07T08:29:32;102251.28;;;3.95;100.00
58975;BME280;44751;52.236;5.178;2024-01-07T08:31:59;102255.28;;;4.15;100.00
58975;BME280;44751;52.236;5.178;2024-01-07T08:34:26;102260.66;;;4.69;100.00
58975;BME280;44751;52.236;5.178;2024-01-07T08:36:55;102270.16;;;3.92;100.00
58975;BME280;44751;52.236;5.178;2024-01-07T08:39:21;102264.50;;;3.69;100.00
58975;BME280;44751;52.236;5.178;2024-01-07T08:41:51;102268.84;;;3.84;100.00
58975;BME280;44751;52.236;5.178;2024-01-07T08:44:17;102279.88;;;3.93;100.00
58975;BME280;44751;52.236;5.178;2024-01-07T08:46:44;102280.22;;;4.01;100.00
58975;BME280;44751;52.236;5.178;2024-01-07T08:49:10;102276.53;;;4.04;100.00
58975;BME280;44751;52.236;5.178;2024-01-07T08:51:39;102283.19;;;3.69;100.00
58975;BME280;44751;52.236;5.178;2024-01-07T08:54:05;102284.31;;;4.07;100.00
58975;BME280;44751;52.236;5.178;2024-01-07T08:56:32;102296.97;;;3.90;100.00
58975;BME280;44751;52.236;5.178;2024-01-07T08:58:58;102293.22;;;3.93;100.00
58975;BME280;44751;52.236;5.178;2024-01-07T09:01:25;102300.19;;;3.95;100.00
58975;BME280;44751;52.236;5.178;2024-01-07T09:03:51;102306.56;;;3.65;100.00
58975;BME280;44751;52.236;5.178;2024-01-07T09:06:18;102312.44;;;3.85;100.00
58975;BME280;44751;52.236;5.178;2024-01-07T09:08:44;102311.00;;;3.79;100.00
58975;BME280;44751;52.236;5.178;2024-01-07T09:11:10;102326.97;;;4.08;100.00
58975;BME280;44751;52.236;5.178;2024-01-07T09:13:38;102323.34;;;3.67;100.00
58975;BME280;44751;52.236;5.178;2024-01-07T09:16:07;102328.66;;;4.09;100.00
58975;BME280;44751;52.236;5.178;2024-01-07T09:18:36;102343.69;;;4.25;100.00
58975;BME280;44751;52.236;5.178;2024-01-07T09:21:03;102341.19;;;4.09;100.00
58975;BME280;44751;52.236;5.178;2024-01-07T09:23:29;102341.63;;;3.88;100.00
58975;BME280;44751;52.236;5.178;2024-01-07T09:25:56;102349.56;;;4.17;100.00
58975;BME280;44751;52.236;5.178;2024-01-07T09:28:25;102344.16;;;4.32;100.00
58975;BME280;44751;52.236;5.178;2024-01-07T09:30:51;102345.88;;;4.33;100.00
58975;BME280;44751;52.236;5.178;2024-01-07T09:33:17;102351.34;;;4.17;100.00
58975;BME280;44751;52.236;5.178;2024-01-07T09:35:45;102358.44;;;4.45;100.00
58975;BME280;44751;52.236;5.178;2024-01-07T09:38:11;102360.22;;;4.45;100.00
58975;BME280;44751;52.236;5.178;2024-01-07T09:40:38;102349.75;;;4.42;100.00
58975;BME280;44751;52.236;5.178;2024-01-07T09:43:05;102359.38;;;4.17;100.00
58975;BME280;44751;52.236;5.178;2024-01-07T09:45:32;102356.84;;;4.28;100.00
58975;BME280;44751;52.236;5.178;2024-01-07T09:47:59;102365.56;;;4.17;100.00
58975;BME280;44751;52.236;5.178;2024-01-07T09:50:25;102367.72;;;4.39;100.00
58975;BME280;44751;52.236;5.178;2024-01-07T09:52:56;102357.41;;;4.33;100.00
58975;BME280;44751;52.236;5.178;2024-01-07T09:55:31;102381.16;;;4.38;100.00
58975;BME280;44751;52.236;5.178;2024-01-07T09:57:59;102368.06;;;4.48;100.00
58975;BME280;44751;52.236;5.178;2024-01-07T10:00:27;102376.00;;;4.07;100.00
58975;BME280;44751;52.236;5.178;2024-01-07T10:03:02;102377.34;;;4.83;100.00
58975;BME280;44751;52.236;5.178;2024-01-07T10:05:29;102378.94;;;4.17;100.00
58975;BME280;44751;52.236;5.178;2024-01-07T10:07:55;102378.41;;;4.39;100.00
58975;BME280;44751;52.236;5.178;2024-01-07T10:10:22;102389.72;;;4.43;100.00
58975;BME280;44751;52.236;5.178;2024-01-07T10:12:49;102403.94;;;4.71;100.00
58975;BME280;44751;52.236;5.178;2024-01-07T10:15:18;102415.84;;;4.25;100.00
58975;BME280;44751;52.236;5.178;2024-01-07T10:17:44;102404.94;;;4.43;100.00
58975;BME280;44751;52.236;5.178;2024-01-07T10:20:11;102413.81;;;4.84;100.00
58975;BME280;44751;52.236;5.178;2024-01-07T10:22:38;102425.56;;;4.68;100.00
58975;BME280;44751;52.236;5.178;2024-01-07T10:25:05;102424.41;;;4.85;100.00
58975;BME280;44751;52.236;5.178;2024-01-07T10:27:35;102427.06;;;4.72;100.00
58975;BME280;44751;52.236;5.178;2024-01-07T10:30:03;102416.13;;;4.62;100.00
58975;BME280;44751;52.236;5.178;2024-01-07T10:32:30;102421.28;;;5.19;100.00
58975;BME280;44751;52.236;5.178;2024-01-07T10:35:07;102429.25;;;5.34;100.00
58975;BME280;44751;52.236;5.178;2024-01-07T10:37:39;102420.94;;;4.98;100.00
58975;BME280;44751;52.236;5.178;2024-01-07T10:40:07;102418.38;;;5.09;100.00
58975;BME280;44751;52.236;5.178;2024-01-07T10:42:34;102435.78;;;5.68;100.00
58975;BME280;44751;52.236;5.178;2024-01-07T10:45:00;102432.78;;;5.60;100.00
58975;BME280;44751;52.236;5.178;2024-01-07T10:47:31;102431.91;;;5.34;100.00
58975;BME280;44751;52.236;5.178;2024-01-07T10:50:02;102443.81;;;5.29;100.00
58975;BME280;44751;52.236;5.178;2024-01-07T10:52:29;102426.66;;;4.78;100.00
58975;BME280;44751;52.236;5.178;2024-01-07T10:55:05;102423.34;;;5.15;100.00
58975;BME280;44751;52.236;5.178;2024-01-07T11:00:15;102430.25;;;5.05;100.00
58975;BME280;44751;52.236;5.178;2024-01-07T11:06:14;102432.28;;;4.46;100.00
58975;BME280;44751;52.236;5.178;2024-01-07T11:08:46;102431.59;;;4.85;100.00
58975;BME280;44751;52.236;5.178;2024-01-07T11:11:21;102448.63;;;4.42;100.00
58975;BME280;44751;52.236;5.178;2024-01-07T11:13:53;102448.59;;;4.84;100.00
58975;BME280;44751;52.236;5.178;2024-01-07T11:19:05;102455.16;;;4.93;100.00
58975;BME280;44751;52.236;5.178;2024-01-07T11:21:31;102449.56;;;4.83;100.00
58975;BME280;44751;52.236;5.178;2024-01-07T11:23:58;102458.53;;;4.54;100.00
58975;BME280;44751;52.236;5.178;2024-01-07T11:26:28;102437.16;;;4.82;100.00
58975;BME280;44751;52.236;5.178;2024-01-07T11:28:57;102438.13;;;4.94;100.00
58975;BME280;44751;52.236;5.178;2024-01-07T11:34:05;102435.66;;;4.35;100.00
58975;BME280;44751;52.236;5.178;2024-01-07T11:36:34;102430.63;;;4.31;100.00
58975;BME280;44751;52.236;5.178;2024-01-07T11:39:04;102427.53;;;3.95;100.00
58975;BME280;44751;52.236;5.178;2024-01-07T11:41:34;102433.59;;;4.26;100.00
58975;BME280;44751;52.236;5.178;2024-01-07T11:44:01;102432.63;;;4.27;100.00
58975;BME280;44751;52.236;5.178;2024-01-07T11:46:29;102434.22;;;4.44;100.00
58975;BME280;44751;52.236;5.178;2024-01-07T11:48:57;102448.84;;;4.09;100.00
58975;BME280;44751;52.236;5.178;2024-01-07T11:51:31;102453.31;;;4.23;100.00
58975;BME280;44751;52.236;5.178;2024-01-07T11:53:58;102450.59;;;3.96;100.00
58975;BME280;44751;52.236;5.178;2024-01-07T11:56:25;102457.16;;;4.19;100.00
58975;BME280;44751;52.236;5.178;2024-01-07T11:58:51;102453.31;;;4.38;100.00
58975;BME280;44751;52.236;5.178;2024-01-07T12:01:18;102451.53;;;4.66;100.00
58975;BME280;44751;52.236;5.178;2024-01-07T12:03:50;102449.31;;;4.31;100.00
58975;BME280;44751;52.236;5.178;2024-01-07T12:06:18;102458.88;;;3.91;100.00
58975;BME280;44751;52.236;5.178;2024-01-07T12:08:45;102442.09;;;4.60;100.00
58975;BME280;44751;52.236;5.178;2024-01-07T12:11:12;102437.63;;;4.74;100.00
58975;BME280;44751;52.236;5.178;2024-01-07T12:13:44;102448.81;;;4.81;100.00
58975;BME280;44751;52.236;5.178;2024-01-07T12:16:11;102447.72;;;4.56;100.00
58975;BME280;44751;52.236;5.178;2024-01-07T12:18:38;102467.31;;;4.42;100.00
58975;BME280;44751;52.236;5.178;2024-01-07T12:21:05;102457.69;;;4.39;100.00
58975;BME280;44751;52.236;5.178;2024-01-07T12:23:35;102464.59;;;4.71;100.00
58975;BME280;44751;52.236;5.178;2024-01-07T12:26:10;102464.91;;;4.66;100.00
58975;BME280;44751;52.236;5.178;2024-01-07T12:28:37;102451.94;;;5.28;100.00
58975;BME280;44751;52.236;5.178;2024-01-07T12:31:04;102478.94;;;5.38;100.00
58975;BME280;44751;52.236;5.178;2024-01-07T12:33:38;102473.09;;;5.18;100.00
58975;BME280;44751;52.236;5.178;2024-01-07T12:36:06;102475.34;;;4.84;99.42
58975;BME280;44751;52.236;5.178;2024-01-07T12:38:33;102472.00;;;4.80;98.69
58975;BME280;44751;52.236;5.178;2024-01-07T12:40:59;102467.75;;;4.63;99.20
58975;BME280;44751;52.236;5.178;2024-01-07T12:43:26;102481.59;;;4.70;100.00
58975;BME280;44751;52.236;5.178;2024-01-07T12:45:52;102473.69;;;4.68;98.79
58975;BME280;44751;52.236;5.178;2024-01-07T12:48:20;102486.03;;;4.42;99.65
58975;BME280;44751;52.236;5.178;2024-01-07T12:50:47;102492.84;;;4.33;98.97
58975;BME280;44751;52.236;5.178;2024-01-07T12:53:14;102483.97;;;4.32;99.65
58975;BME280;44751;52.236;5.178;2024-01-07T12:55:41;102492.56;;;4.23;100.00
58975;BME280;44751;52.236;5.178;2024-01-07T12:58:08;102486.59;;;4.89;99.71
58975;BME280;44751;52.236;5.178;2024-01-07T13:00:35;102482.91;;;5.04;99.50